createdAt,value
2023-01-15T00:00:33.515Z,10.08
2023-01-15T00:03:00.369Z,10.08
2023-01-15T00:05:27.786Z,10.15
2023-01-15T00:07:54.531Z,10.14
2023-01-15T00:10:22.123Z,10.13
2023-01-15T00:12:49.184Z,10.18
2023-01-15T00:15:16.486Z,10.19
2023-01-15T00:17:43.782Z,10.18
2023-01-15T00:20:12.919Z,10.21
2023-01-15T00:22:39.759Z,10.22
2023-01-15T00:25:26.840Z,10.30
2023-01-15T00:27:55.017Z,10.37
2023-01-15T00:30:21.856Z,10.39
2023-01-15T00:32:49.640Z,10.44
2023-01-15T00:35:19.229Z,10.40
2023-01-15T00:37:46.212Z,10.39
2023-01-15T00:40:15.444Z,10.44
2023-01-15T00:42:43.245Z,10.48
2023-01-15T00:45:19.491Z,10.48
2023-01-15T00:47:49.516Z,10.58
2023-01-15T00:50:16.348Z,10.59
2023-01-15T00:52:43.335Z,10.48
2023-01-15T00:55:16.462Z,10.54
2023-01-15T00:57:48.781Z,10.57
2023-01-15T01:00:15.781Z,10.56
2023-01-15T01:02:42.710Z,10.57
2023-01-15T01:05:10.001Z,10.56
2023-01-15T01:07:36.902Z,10.57
2023-01-15T01:10:04.324Z,10.52
2023-01-15T01:12:31.801Z,10.46
2023-01-15T01:14:58.505Z,10.48
2023-01-15T01:17:28.564Z,10.40
2023-01-15T01:19:55.369Z,10.42
2023-01-15T01:22:22.035Z,10.43
2023-01-15T01:24:48.947Z,10.45
2023-01-15T01:27:18.961Z,10.43
2023-01-15T01:29:46.223Z,10.46
2023-01-15T01:32:13.961Z,10.37
2023-01-15T01:34:40.751Z,10.37
2023-01-15T01:37:07.671Z,10.40
2023-01-15T01:39:34.307Z,10.36
2023-01-15T01:42:01.354Z,10.31
2023-01-15T01:45:01.700Z,10.25
2023-01-15T01:47:32.509Z,10.22
2023-01-15T01:50:04.904Z,10.16
2023-01-15T01:52:51.806Z,10.13
2023-01-15T01:55:21.007Z,9.90
2023-01-15T01:57:48.594Z,9.84
2023-01-15T02:02:57.443Z,9.58
2023-01-15T02:05:31.870Z,9.58
2023-01-15T02:07:58.923Z,9.49
2023-01-15T02:10:25.718Z,9.49
2023-01-15T02:13:01.533Z,9.37
2023-01-15T02:15:41.085Z,9.42
2023-01-15T02:18:24.432Z,9.42
2023-01-15T02:21:02.284Z,9.35
2023-01-15T02:23:53.990Z,9.40
2023-01-15T02:27:03.629Z,9.35
2023-01-15T02:29:45.870Z,9.21
2023-01-15T02:32:52.559Z,9.30
2023-01-15T02:35:23.298Z,9.27
2023-01-15T02:37:52.475Z,9.29
2023-01-15T02:40:21.727Z,9.16
2023-01-15T02:42:49.886Z,9.17
2023-01-15T02:45:24.397Z,9.20
2023-01-15T02:47:53.288Z,9.13
2023-01-15T02:50:25.329Z,9.06
2023-01-15T02:52:58.297Z,9.05
2023-01-15T02:55:29.016Z,8.97
2023-01-15T02:57:59.440Z,8.94
2023-01-15T03:00:26.918Z,8.86
2023-01-15T03:03:02.700Z,8.81
2023-01-15T03:05:35.801Z,8.80
2023-01-15T03:08:04.059Z,8.78
2023-01-15T03:10:38.830Z,8.72
2023-01-15T03:13:06.469Z,8.65
2023-01-15T03:16:15.032Z,8.66
2023-01-15T03:18:50.511Z,8.48
2023-01-15T03:21:21.585Z,8.44
2023-01-15T03:23:51.987Z,8.43
2023-01-15T03:26:18.991Z,8.34
2023-01-15T03:28:47.128Z,8.21
2023-01-15T03:31:15.290Z,8.33
2023-01-15T03:33:42.884Z,8.26
2023-01-15T03:36:11.031Z,8.27
2023-01-15T03:38:39.643Z,8.20
2023-01-15T03:41:20.865Z,8.23
2023-01-15T03:44:18.447Z,8.11
2023-01-15T03:46:59.894Z,8.12
2023-01-15T03:50:06.047Z,7.92
2023-01-15T03:52:57.277Z,7.93
2023-01-15T03:55:29.806Z,7.89
2023-01-15T03:58:00.747Z,7.92
2023-01-15T04:00:30.938Z,7.89
2023-01-15T04:02:59.204Z,7.99
2023-01-15T04:05:26.616Z,7.81
2023-01-15T04:07:54.611Z,7.74
2023-01-15T04:10:21.616Z,7.78
2023-01-15T04:12:49.531Z,7.77
2023-01-15T04:15:17.405Z,7.73
2023-01-15T04:17:44.437Z,7.62
2023-01-15T04:20:12.300Z,7.58
2023-01-15T04:22:40.428Z,7.66
2023-01-15T04:25:08.136Z,7.57
2023-01-15T04:27:35.191Z,7.52
2023-01-15T04:30:02.333Z,7.54
2023-01-15T04:32:29.103Z,7.40
2023-01-15T04:34:55.995Z,7.35
2023-01-15T04:37:22.764Z,7.31
2023-01-15T04:39:49.442Z,7.32
2023-01-15T04:42:34.915Z,7.31
2023-01-15T04:45:01.736Z,7.22
2023-01-15T04:47:31.180Z,7.22
2023-01-15T04:49:58.168Z,7.15
2023-01-15T04:52:25.760Z,7.00
2023-01-15T04:54:55.013Z,6.98
2023-01-15T04:57:21.757Z,7.00
2023-01-15T04:59:48.637Z,6.96
2023-01-15T05:02:16.067Z,6.94
2023-01-15T05:04:43.353Z,6.96
2023-01-15T05:07:10.868Z,7.07
2023-01-15T05:09:37.703Z,7.02
2023-01-15T05:12:04.831Z,6.94
2023-01-15T05:14:31.863Z,7.00
2023-01-15T05:16:59.189Z,6.98
2023-01-15T05:19:26.537Z,6.85
2023-01-15T05:21:53.243Z,6.67
2023-01-15T05:24:21.154Z,6.66
2023-01-15T05:26:48.540Z,6.85
2023-01-15T05:29:15.713Z,6.89
2023-01-15T05:31:45.481Z,6.77
2023-01-15T05:34:12.769Z,6.71
2023-01-15T05:36:39.756Z,6.65
2023-01-15T05:39:06.700Z,6.52
2023-01-15T05:41:49.248Z,6.70
2023-01-15T05:44:27.561Z,6.53
2023-01-15T05:46:57.607Z,6.41
2023-01-15T05:49:26.415Z,6.38
2023-01-15T05:51:55.429Z,6.32
2023-01-15T05:54:25.955Z,6.37
2023-01-15T05:56:53.567Z,6.34
2023-01-15T05:59:23.783Z,6.35
2023-01-15T06:01:50.897Z,6.38
2023-01-15T06:04:21.284Z,6.34
2023-01-15T06:06:51.721Z,6.34
2023-01-15T06:09:19.633Z,6.19
2023-01-15T06:11:47.369Z,6.30
2023-01-15T06:14:15.865Z,6.34
2023-01-15T06:16:44.744Z,6.29
2023-01-15T06:19:13.612Z,6.25
2023-01-15T06:21:41.440Z,6.23
2023-01-15T06:24:08.837Z,6.17
2023-01-15T06:26:36.051Z,6.15
2023-01-15T06:29:03.100Z,6.20
2023-01-15T06:31:30.466Z,6.20
2023-01-15T06:33:58.272Z,6.15
2023-01-15T06:36:26.799Z,6.09
2023-01-15T06:38:53.768Z,6.11
2023-01-15T06:41:42.136Z,6.13
2023-01-15T06:44:33.230Z,6.16
2023-01-15T06:47:22.276Z,6.11
2023-01-15T06:49:55.297Z,5.96
2023-01-15T06:52:26.021Z,6.00
2023-01-15T06:54:53.486Z,5.95
2023-01-15T06:57:21.252Z,5.99
2023-01-15T06:59:49.385Z,5.87
2023-01-15T07:02:18.445Z,5.86
2023-01-15T07:04:46.084Z,5.86
2023-01-15T07:07:14.232Z,5.97
2023-01-15T07:09:40.946Z,6.04
2023-01-15T07:12:08.816Z,6.05
2023-01-15T07:14:35.707Z,6.13
2023-01-15T07:17:02.965Z,6.07
2023-01-15T07:19:29.896Z,5.94
2023-01-15T07:21:56.542Z,5.84
2023-01-15T07:24:23.716Z,5.90
2023-01-15T07:26:51.020Z,5.94
2023-01-15T07:29:18.448Z,5.69
2023-01-15T07:31:45.898Z,5.82
2023-01-15T07:34:12.608Z,5.86
2023-01-15T07:36:39.831Z,5.84
2023-01-15T07:39:09.616Z,5.83
2023-01-15T07:41:54.954Z,5.84
2023-01-15T07:44:41.075Z,5.79
2023-01-15T07:47:37.693Z,5.73
2023-01-15T07:50:08.426Z,5.80
2023-01-15T07:52:35.342Z,5.85
2023-01-15T07:55:02.329Z,5.80
2023-01-15T07:57:29.286Z,5.82
2023-01-15T07:59:56.948Z,5.83
2023-01-15T08:02:23.623Z,5.73
2023-01-15T08:04:50.395Z,5.71
2023-01-15T08:07:18.651Z,5.72
2023-01-15T08:09:46.075Z,5.72
2023-01-15T08:12:32.572Z,5.71
2023-01-15T08:15:14.971Z,5.75
2023-01-15T08:17:43.287Z,5.64
2023-01-15T08:20:14.245Z,5.53
2023-01-15T08:22:41.327Z,5.56
2023-01-15T08:25:09.899Z,5.63
2023-01-15T08:27:39.931Z,5.65
2023-01-15T08:30:10.959Z,5.71
2023-01-15T08:32:40.416Z,5.66
2023-01-15T08:35:10.143Z,5.63
2023-01-15T08:37:40.199Z,5.72
2023-01-15T08:40:10.322Z,5.69
2023-01-15T08:42:39.413Z,5.79
2023-01-15T08:45:08.801Z,5.77
2023-01-15T08:47:37.872Z,5.65
2023-01-15T08:50:09.883Z,5.59
2023-01-15T08:52:38.935Z,5.70
2023-01-15T08:55:08.576Z,5.62
2023-01-15T08:57:37.192Z,5.65
2023-01-15T09:00:05.512Z,5.65
2023-01-15T09:02:32.338Z,5.66
2023-01-15T09:04:59.627Z,5.75
2023-01-15T09:07:27.319Z,5.71
2023-01-15T09:09:54.736Z,5.70
2023-01-15T09:12:24.930Z,5.70
2023-01-15T09:14:58.865Z,5.64
2023-01-15T09:17:29.733Z,5.63
2023-01-15T09:19:56.444Z,5.65
2023-01-15T09:22:23.217Z,5.63
2023-01-15T09:24:51.497Z,5.54
2023-01-15T09:27:18.963Z,5.57
2023-01-15T09:29:46.306Z,5.50
2023-01-15T09:32:13.102Z,5.43
2023-01-15T09:34:39.915Z,5.38
2023-01-15T09:37:07.109Z,5.32
2023-01-15T09:39:34.821Z,5.41
2023-01-15T09:42:32.270Z,5.45
2023-01-15T09:45:37.715Z,5.47
2023-01-15T09:48:18.040Z,5.41
2023-01-15T09:51:17.745Z,5.52
2023-01-15T09:54:11.922Z,5.44
2023-01-15T09:56:38.817Z,5.26
2023-01-15T09:59:29.530Z,5.29
2023-01-15T10:01:56.443Z,5.21
2023-01-15T10:04:34.727Z,5.24
2023-01-15T10:07:12.854Z,5.33
2023-01-15T10:09:40.951Z,5.26
2023-01-15T10:12:34.894Z,5.39
2023-01-15T10:15:14.478Z,5.35
2023-01-15T10:17:48.614Z,5.48
2023-01-15T10:20:43.091Z,5.47
2023-01-15T10:23:36.451Z,5.53
2023-01-15T10:26:26.776Z,5.34
2023-01-15T10:29:36.806Z,5.47
2023-01-15T10:32:27.067Z,5.25
2023-01-15T10:35:09.620Z,5.25
2023-01-15T10:37:52.489Z,5.31
2023-01-15T10:40:58.693Z,5.33
2023-01-15T10:43:42.510Z,5.32
2023-01-15T10:46:15.942Z,5.39
2023-01-15T10:49:02.642Z,5.40
2023-01-15T10:51:45.031Z,5.33
2023-01-15T10:54:33.622Z,5.26
2023-01-15T10:57:11.962Z,5.29
2023-01-15T10:59:49.168Z,5.32
2023-01-15T11:02:45.946Z,5.42
2023-01-15T11:05:20.244Z,5.34
2023-01-15T11:08:15.310Z,5.35
2023-01-15T11:10:41.222Z,5.30
2023-01-15T11:13:44.803Z,5.41
2023-01-15T11:19:38.960Z,5.22
2023-01-15T11:22:20.111Z,5.20
2023-01-15T11:24:53.316Z,5.31
2023-01-15T11:27:27.868Z,5.34
2023-01-15T11:29:59.580Z,5.35
2023-01-15T11:32:39.261Z,5.25
2023-01-15T11:35:09.667Z,5.32
2023-01-15T11:37:36.682Z,5.24
2023-01-15T11:40:08.844Z,5.35
2023-01-15T11:43:11.883Z,5.33
2023-01-15T11:46:25.286Z,5.27
2023-01-15T11:49:10.857Z,5.38
2023-01-15T11:51:48.061Z,5.35
2023-01-15T11:54:19.922Z,5.44
2023-01-15T11:56:46.667Z,5.35
2023-01-15T11:59:18.035Z,5.46
2023-01-15T12:01:58.281Z,5.53
2023-01-15T12:05:00.461Z,5.64
2023-01-15T12:07:29.760Z,5.64
2023-01-15T12:10:42.371Z,5.69
2023-01-15T12:13:26.008Z,5.85
2023-01-15T12:22:35.817Z,6.15
2023-01-15T12:25:40.948Z,6.06
2023-01-15T12:28:18.999Z,6.13
2023-01-15T12:30:58.919Z,6.07
2023-01-15T12:36:52.118Z,6.08
2023-01-15T12:39:27.045Z,6.10
2023-01-15T12:42:16.013Z,6.01
2023-01-15T12:45:22.776Z,6.11
2023-01-15T12:47:57.263Z,6.06
2023-01-15T12:50:55.833Z,6.08
2023-01-15T12:53:38.217Z,6.11
2023-01-15T12:56:23.048Z,6.03
2023-01-15T12:59:03.261Z,6.07
2023-01-15T13:02:09.768Z,6.19
2023-01-15T13:05:06.968Z,6.25
2023-01-15T13:07:42.978Z,6.25
2023-01-15T13:10:23.630Z,6.36
2023-01-15T13:12:52.147Z,6.30
2023-01-15T13:15:20.797Z,6.33
2023-01-15T13:18:22.865Z,6.30
2023-01-15T13:20:51.635Z,6.33
2023-01-15T13:24:02.567Z,6.30
2023-01-15T13:27:13.678Z,6.35
2023-01-15T13:30:20.181Z,6.34
2023-01-15T13:32:50.773Z,6.26
2023-01-15T13:35:29.324Z,6.29
2023-01-15T13:37:58.895Z,6.36
2023-01-15T13:40:50.625Z,6.36
2023-01-15T13:43:42.008Z,6.36
2023-01-15T13:46:13.946Z,6.41
2023-01-15T13:48:45.403Z,6.40
2023-01-15T13:51:30.475Z,6.44
2023-01-15T13:53:58.398Z,6.35
2023-01-15T13:56:34.200Z,6.34
2023-01-15T13:59:03.442Z,6.30
2023-01-15T14:01:35.418Z,6.37
2023-01-15T14:04:18.316Z,6.37
2023-01-15T14:06:54.679Z,6.36
2023-01-15T14:09:30.186Z,6.39
2023-01-15T14:12:18.325Z,6.42
2023-01-15T14:15:31.895Z,6.45
2023-01-15T14:18:36.801Z,6.48
2023-01-15T14:21:18.360Z,6.42
2023-01-15T14:24:11.867Z,6.56
2023-01-15T14:27:03.774Z,6.53
2023-01-15T14:30:12.896Z,6.55
2023-01-15T14:33:08.970Z,6.59
2023-01-15T14:35:37.957Z,6.55
2023-01-15T14:38:07.388Z,6.61
2023-01-15T14:40:35.747Z,6.59
2023-01-15T14:43:10.665Z,6.51
2023-01-15T14:45:40.148Z,6.53
2023-01-15T14:48:42.530Z,6.47
2023-01-15T14:51:25.964Z,6.47
2023-01-15T14:53:58.513Z,6.50
2023-01-15T14:56:40.895Z,6.54
2023-01-15T14:59:26.025Z,6.50
2023-01-15T15:01:56.449Z,6.52
2023-01-15T15:04:35.478Z,6.48
2023-01-15T15:07:12.793Z,6.47
2023-01-15T15:09:45.819Z,6.45
2023-01-15T15:13:03.113Z,6.45
2023-01-15T15:15:50.272Z,6.42
2023-01-15T15:18:41.932Z,6.42
2023-01-15T15:21:19.479Z,6.42
2023-01-15T15:24:12.757Z,6.45
2023-01-15T15:26:39.979Z,6.41
2023-01-15T15:29:13.770Z,6.49
2023-01-15T15:31:48.799Z,6.50
2023-01-15T15:34:21.897Z,6.56
2023-01-15T15:36:48.764Z,6.51
2023-01-15T15:39:21.326Z,6.49
2023-01-15T15:42:08.162Z,6.44
2023-01-15T15:45:08.478Z,6.46
2023-01-15T15:47:57.920Z,6.44
2023-01-15T15:50:29.351Z,6.41
2023-01-15T15:52:58.339Z,6.46
2023-01-15T15:55:31.345Z,6.43
2023-01-15T15:58:01.253Z,6.40
2023-01-15T16:00:34.757Z,6.42
2023-01-15T16:03:05.788Z,6.44
2023-01-15T16:05:32.717Z,6.45
2023-01-15T16:08:17.767Z,6.49
2023-01-15T16:10:46.827Z,6.52
2023-01-15T16:13:22.362Z,6.38
2023-01-15T16:15:51.269Z,6.46
2023-01-15T16:18:26.680Z,6.52
2023-01-15T16:20:53.758Z,6.50
2023-01-15T16:23:26.264Z,6.46
2023-01-15T16:26:14.940Z,6.41
2023-01-15T16:28:45.748Z,6.47
2023-01-15T16:31:13.059Z,6.46
2023-01-15T16:33:40.490Z,6.44
2023-01-15T16:36:08.354Z,6.45
2023-01-15T16:38:47.945Z,6.41
2023-01-15T16:41:32.985Z,6.43
2023-01-15T16:44:02.998Z,6.45
2023-01-15T16:46:39.880Z,6.46
2023-01-15T16:49:21.912Z,6.47
2023-01-15T16:51:53.667Z,6.45
2023-01-15T16:54:49.931Z,6.48
2023-01-15T16:57:33.179Z,6.42
2023-01-15T17:00:05.582Z,6.49
2023-01-15T17:02:45.289Z,6.37
2023-01-15T17:05:19.678Z,6.37
2023-01-15T17:07:48.020Z,6.33
2023-01-15T17:10:21.377Z,6.34
2023-01-15T17:12:48.099Z,6.28
2023-01-15T17:15:33.231Z,6.29
2023-01-15T17:18:19.603Z,6.33
2023-01-15T17:20:46.661Z,6.30
2023-01-15T17:23:13.808Z,6.29
2023-01-15T17:25:40.867Z,6.18
2023-01-15T17:28:12.902Z,6.28
2023-01-15T17:30:41.270Z,6.22
2023-01-15T17:33:11.819Z,6.04
2023-01-15T17:35:41.408Z,6.14
2023-01-15T17:38:13.461Z,6.17
2023-01-15T17:40:41.728Z,6.19
2023-01-15T17:43:15.077Z,6.07
2023-01-15T17:45:43.224Z,6.03
2023-01-15T17:48:10.609Z,6.07
2023-01-15T17:50:38.066Z,5.77
2023-01-15T17:53:05.592Z,5.78
2023-01-15T17:55:51.598Z,5.78
2023-01-15T17:58:37.208Z,5.79
2023-01-15T18:01:34.350Z,5.86
2023-01-15T18:04:20.366Z,6.03
2023-01-15T18:06:52.110Z,6.05
2023-01-15T18:09:25.662Z,6.32
2023-01-15T18:11:52.371Z,6.14
2023-01-15T18:14:19.275Z,6.20
2023-01-15T18:16:50.614Z,6.20
2023-01-15T18:19:18.377Z,6.11
2023-01-15T18:21:45.258Z,6.18
2023-01-15T18:24:17.710Z,6.05
2023-01-15T18:26:45.346Z,6.13
2023-01-15T18:29:12.161Z,6.08
2023-01-15T18:31:39.426Z,6.08
2023-01-15T18:34:06.686Z,6.03
2023-01-15T18:36:35.342Z,5.98
2023-01-15T18:39:06.065Z,6.04
2023-01-15T18:41:58.231Z,5.96
2023-01-15T18:44:49.066Z,5.99
2023-01-15T18:47:18.120Z,5.98
2023-01-15T18:49:46.098Z,5.91
2023-01-15T18:52:37.233Z,5.91
2023-01-15T18:55:04.226Z,5.86
2023-01-15T18:57:32.930Z,5.89
2023-01-15T18:59:59.659Z,5.87
2023-01-15T19:02:27.129Z,5.88
2023-01-15T19:04:55.030Z,5.91
2023-01-15T19:07:22.115Z,5.94
2023-01-15T19:09:52.878Z,5.86
2023-01-15T19:12:20.286Z,5.83
2023-01-15T19:15:26.515Z,5.75
2023-01-15T19:18:12.055Z,5.77
2023-01-15T19:20:42.978Z,5.72
2023-01-15T19:23:09.698Z,5.74
2023-01-15T19:25:44.674Z,5.68
2023-01-15T19:28:17.797Z,5.70
2023-01-15T19:31:05.575Z,5.75
2023-01-15T19:33:33.209Z,5.70
2023-01-15T19:36:00.266Z,5.64
2023-01-15T19:38:27.162Z,5.65
2023-01-15T19:41:14.909Z,5.60
2023-01-15T19:44:00.303Z,5.59
2023-01-15T19:46:46.020Z,5.55
2023-01-15T19:49:40.452Z,5.61
2023-01-15T19:52:27.505Z,5.57
2023-01-15T19:54:56.961Z,5.58
2023-01-15T19:57:23.978Z,5.59
2023-01-15T19:59:51.101Z,5.50
2023-01-15T20:02:19.382Z,5.55
2023-01-15T20:04:46.999Z,5.54
2023-01-15T20:07:14.994Z,5.41
2023-01-15T20:09:42.594Z,5.35
2023-01-15T20:12:31.668Z,5.41
2023-01-15T20:14:59.304Z,5.33
2023-01-15T20:17:28.773Z,5.36
2023-01-15T20:19:55.649Z,5.42
2023-01-15T20:22:25.115Z,5.37
2023-01-15T20:24:52.794Z,5.26
2023-01-15T20:27:20.201Z,5.34
2023-01-15T20:29:57.163Z,5.19
2023-01-15T20:32:24.123Z,5.19
2023-01-15T20:34:50.991Z,5.21
2023-01-15T20:37:18.781Z,5.24
2023-01-15T20:39:45.523Z,5.20
2023-01-15T20:42:31.189Z,5.20
2023-01-15T20:44:58.131Z,5.14
2023-01-15T20:47:45.579Z,5.13
2023-01-15T20:50:15.869Z,5.09
2023-01-15T20:52:47.671Z,5.09
2023-01-15T20:55:15.368Z,5.10
2023-01-15T20:57:43.114Z,5.10
2023-01-15T21:00:20.778Z,5.11
2023-01-15T21:02:47.716Z,5.08
2023-01-15T21:05:14.923Z,5.08
2023-01-15T21:07:42.831Z,5.03
2023-01-15T21:10:12.775Z,5.07
2023-01-15T21:12:39.722Z,5.06
2023-01-15T21:15:07.064Z,5.07
2023-01-15T21:17:34.116Z,5.11
2023-01-15T21:20:01.072Z,5.12
2023-01-15T21:22:30.881Z,5.21
2023-01-15T21:24:58.735Z,5.11
2023-01-15T21:27:26.659Z,5.08
2023-01-15T21:29:54.065Z,5.10
2023-01-15T21:32:21.098Z,5.05
2023-01-15T21:34:47.860Z,5.07
2023-01-15T21:37:15.953Z,5.19
2023-01-15T21:39:43.324Z,5.22
2023-01-15T21:42:38.043Z,5.24
2023-01-15T21:45:06.366Z,5.32
2023-01-15T21:47:34.422Z,5.25
2023-01-15T21:50:03.664Z,5.28
2023-01-15T21:52:30.983Z,5.19
2023-01-15T21:54:58.207Z,5.20
2023-01-15T21:57:25.009Z,5.21
2023-01-15T21:59:51.756Z,5.28
2023-01-15T22:02:22.069Z,5.28
2023-01-15T22:04:49.623Z,5.26
2023-01-15T22:07:18.133Z,5.26
2023-01-15T22:09:45.288Z,5.35
2023-01-15T22:12:13.605Z,5.35
2023-01-15T22:14:40.222Z,5.28
2023-01-15T22:17:08.409Z,5.26
2023-01-15T22:19:35.238Z,5.25
2023-01-15T22:22:07.985Z,5.31
2023-01-15T22:24:36.729Z,5.40
2023-01-15T22:27:06.802Z,5.45
2023-01-15T22:29:38.881Z,5.44
2023-01-15T22:32:07.214Z,5.45
2023-01-15T22:34:34.568Z,5.46
2023-01-15T22:37:01.578Z,5.57
2023-01-15T22:39:28.935Z,5.49
2023-01-15T22:42:34.579Z,5.42
2023-01-15T22:45:03.772Z,5.45
2023-01-15T22:47:30.690Z,5.51
2023-01-15T22:49:58.070Z,5.55
2023-01-15T22:52:26.511Z,5.51
2023-01-15T22:54:53.700Z,5.54
2023-01-15T22:57:20.564Z,5.56
2023-01-15T22:59:47.325Z,5.59
2023-01-15T23:02:14.596Z,5.60
2023-01-15T23:04:41.539Z,5.62
2023-01-15T23:07:09.960Z,5.61
2023-01-15T23:09:36.756Z,5.64
2023-01-15T23:12:03.693Z,5.62
2023-01-15T23:14:31.805Z,5.55
2023-01-15T23:16:58.665Z,5.60
2023-01-15T23:19:28.600Z,5.58
2023-01-15T23:21:55.966Z,5.54
2023-01-15T23:24:23.136Z,5.55
2023-01-15T23:26:49.894Z,5.57
2023-01-15T23:29:17.978Z,5.63
2023-01-15T23:31:44.689Z,5.56
2023-01-15T23:34:13.035Z,5.43
2023-01-15T23:36:40.252Z,5.48
2023-01-15T23:39:07.003Z,5.47
2023-01-15T23:41:53.126Z,5.42
2023-01-15T23:44:39.596Z,5.42
2023-01-15T23:47:07.667Z,5.28
2023-01-15T23:49:35.864Z,5.32
2023-01-15T23:52:03.233Z,5.28
2023-01-15T23:54:31.815Z,5.24
2023-01-15T23:57:00.398Z,5.22
2023-01-15T23:59:27.769Z,5.21
